Time;durP1;ratioP1;P1;durP2;ratioP2;P2;SDS_P1;SDS_P2;PMS_P1;PMS_P2;Temp;Humidity;BMP_temperature;BMP_pressure;BME280_temperature;BME280_humidity;BME280_pressure;Samples;Min_cycle;Max_cycle;Signal;HPM_P1;HPM_P2
2023/08/27 00:01:01;;;;;;;0.40;0.40;;;12.10;99.90;;;;;;5002914;28;20432;-76
2023/08/27 00:03:26;;;;;;;0.35;0.35;;;12.10;99.90;;;;;;4983542;28;20496;-76
2023/08/27 00:05:52;;;;;;;0.30;0.30;;;12.10;99.90;;;;;;4996123;28;20372;-77
2023/08/27 00:08:18;;;;;;;0.30;0.30;;;12.10;99.90;;;;;;4993052;28;20054;-77
2023/08/27 00:10:44;;;;;;;0.22;0.22;;;12.10;99.90;;;;;;4982467;28;20406;-77
2023/08/27 00:13:10;;;;;;;0.20;0.20;;;12.00;99.90;;;;;;4989736;28;20050;-77
2023/08/27 00:15:35;;;;;;;0.30;0.30;;;12.00;99.90;;;;;;4989007;28;20125;-77
2023/08/27 00:18:01;;;;;;;0.40;0.40;;;12.00;99.90;;;;;;4984755;28;20057;-77
2023/08/27 00:20:27;;;;;;;0.35;0.35;;;12.00;99.90;;;;;;4989905;28;20419;-76
2023/08/27 00:22:52;;;;;;;0.38;0.38;;;11.90;99.90;;;;;;4978264;28;20143;-76
2023/08/27 00:25:18;;;;;;;0.30;0.30;;;11.90;99.90;;;;;;4991493;28;20125;-76
2023/08/27 00:27:44;;;;;;;0.30;0.30;;;11.90;99.90;;;;;;4993596;28;20104;-76
2023/08/27 00:30:10;;;;;;;0.70;0.38;;;11.90;99.90;;;;;;4981502;28;20128;-76
2023/08/27 00:32:35;;;;;;;0.40;0.40;;;11.90;99.90;;;;;;4994159;28;20092;-76
2023/08/27 00:35:03;;;;;;;0.40;0.40;;;11.90;99.90;;;;;;4991580;28;20534;-76
2023/08/27 00:37:29;;;;;;;0.30;0.30;;;11.80;99.90;;;;;;5006806;28;20050;-77
2023/08/27 00:39:55;;;;;;;0.40;0.40;;;11.80;99.90;;;;;;4981900;28;20069;-76
2023/08/27 00:42:21;;;;;;;0.30;0.30;;;11.80;99.90;;;;;;4991939;28;20054;-77
2023/08/27 00:44:47;;;;;;;0.30;0.30;;;11.70;99.90;;;;;;4985810;28;20043;-76
2023/08/27 00:47:15;;;;;;;0.40;0.40;;;11.70;99.90;;;;;;4991756;28;20046;-76
2023/08/27 00:49:42;;;;;;;0.40;0.40;;;11.70;99.90;;;;;;4974067;28;20061;-76
2023/08/27 00:52:09;;;;;;;0.30;0.30;;;11.60;99.90;;;;;;4984487;28;20466;-76
2023/08/27 00:54:35;;;;;;;0.80;0.80;;;11.70;99.90;;;;;;4991078;28;20100;-77
2023/08/27 00:57:05;;;;;;;0.32;0.32;;;11.60;99.90;;;;;;4990109;28;20455;-76
2023/08/27 00:59:31;;;;;;;0.40;0.40;;;11.60;99.90;;;;;;4984800;28;20136;-77
2023/08/27 01:01:57;;;;;;;0.63;0.63;;;11.60;99.90;;;;;;4989988;28;20393;-76
2023/08/27 01:04:23;;;;;;;0.30;0.30;;;11.60;99.90;;;;;;5004754;28;20053;-76
2023/08/27 01:06:49;;;;;;;0.20;0.20;;;11.60;99.90;;;;;;5001983;28;20054;-76
2023/08/27 01:09:56;;;;;;;0.20;0.20;;;11.60;99.90;;;;;;4986467;28;20046;-76
2023/08/27 01:12:35;;;;;;;0.30;0.30;;;11.60;99.90;;;;;;4953875;28;20062;-77
2023/08/27 01:15:06;;;;;;;0.30;0.30;;;11.60;99.90;;;;;;4999927;28;20062;-77
2023/08/27 01:17:34;;;;;;;0.30;0.30;;;11.60;99.90;;;;;;4997888;28;20361;-77
2023/08/27 01:19:59;;;;;;;0.20;0.20;;;11.60;99.90;;;;;;5002163;28;20050;-77
2023/08/27 01:22:25;;;;;;;0.30;0.30;;;11.60;99.90;;;;;;5007717;28;20044;-77
2023/08/27 01:24:52;;;;;;;0.30;0.30;;;11.60;99.90;;;;;;4990125;28;20236;-76
2023/08/27 01:27:37;;;;;;;0.30;0.30;;;11.60;99.90;;;;;;4992289;28;20057;-77
2023/08/27 01:30:26;;;;;;;0.20;0.20;;;11.60;99.90;;;;;;4990801;28;20510;-77
2023/08/27 01:33:08;;;;;;;0.30;0.30;;;11.60;99.90;;;;;;4988857;28;20050;-77
2023/08/27 01:35:34;;;;;;;0.40;0.40;;;11.60;99.90;;;;;;4986922;28;20061;-76
2023/08/27 01:38:00;;;;;;;0.30;0.30;;;11.60;99.90;;;;;;4988673;28;20061;-77
2023/08/27 01:40:27;;;;;;;0.30;0.30;;;11.60;99.90;;;;;;4985554;28;20041;-77
2023/08/27 01:42:53;;;;;;;0.30;0.30;;;11.70;99.90;;;;;;5001293;28;20064;-77
2023/08/27 01:45:19;;;;;;;0.30;0.30;;;11.70;99.90;;;;;;4992004;28;20570;-77
2023/08/27 01:47:44;;;;;;;0.30;0.30;;;11.70;99.90;;;;;;4990884;28;20137;-77
2023/08/27 01:50:11;;;;;;;0.40;0.40;;;11.70;99.90;;;;;;4993832;28;20495;-77
2023/08/27 01:52:36;;;;;;;0.40;0.40;;;11.70;99.90;;;;;;4991377;28;20046;-77
2023/08/27 01:55:07;;;;;;;0.30;0.30;;;11.70;99.90;;;;;;4988784;28;20053;-77
2023/08/27 01:57:33;;;;;;;0.30;0.30;;;11.70;99.90;;;;;;4985910;28;20080;-77
2023/08/27 01:59:59;;;;;;;0.40;0.40;;;11.70;99.90;;;;;;5001525;28;20068;-77
2023/08/27 02:02:25;;;;;;;0.30;0.30;;;11.80;99.90;;;;;;4986701;28;20488;-77
2023/08/27 02:04:50;;;;;;;1.30;0.47;;;11.90;99.90;;;;;;5002278;28;20064;-77
2023/08/27 02:07:19;;;;;;;0.40;0.40;;;11.90;99.90;;;;;;4983866;28;20480;-76
2023/08/27 02:09:46;;;;;;;1.23;0.40;;;11.90;99.90;;;;;;4992929;28;20057;-77
2023/08/27 02:12:11;;;;;;;0.50;0.50;;;12.00;99.90;;;;;;4989201;28;20054;-76
2023/08/27 02:14:38;;;;;;;0.30;0.30;;;12.00;99.90;;;;;;4985075;28;20133;-76
2023/08/27 02:17:04;;;;;;;0.30;0.30;;;12.10;99.90;;;;;;4989412;28;20057;-76
2023/08/27 02:19:29;;;;;;;0.30;0.30;;;12.20;99.90;;;;;;5005089;28;20049;-76
2023/08/27 02:21:55;;;;;;;0.43;0.43;;;12.20;99.90;;;;;;4990644;28;20049;-77
2023/08/27 02:24:21;;;;;;;0.20;0.20;;;12.20;99.90;;;;;;4989343;28;20046;-77
2023/08/27 02:26:46;;;;;;;0.73;0.68;;;12.20;99.90;;;;;;4993452;28;20038;-77
2023/08/27 02:29:12;;;;;;;0.30;0.30;;;12.20;99.90;;;;;;5006233;28;20152;-76
2023/08/27 02:31:38;;;;;;;0.30;0.30;;;12.20;99.90;;;;;;4983501;28;20131;-77
2023/08/27 02:34:04;;;;;;;0.47;0.47;;;12.20;99.90;;;;;;5005638;28;20052;-76
2023/08/27 02:36:29;;;;;;;0.30;0.30;;;12.20;99.90;;;;;;4986349;28;20045;-76
2023/08/27 02:38:55;;;;;;;0.40;0.40;;;12.20;99.90;;;;;;4984807;28;20557;-77
2023/08/27 02:41:20;;;;;;;0.40;0.40;;;12.20;99.90;;;;;;4989186;28;20399;-77
2023/08/27 02:43:46;;;;;;;0.40;0.40;;;12.20;99.90;;;;;;5003981;28;20118;-77
2023/08/27 02:46:12;;;;;;;0.32;0.32;;;12.20;99.90;;;;;;5003068;28;20056;-76
2023/08/27 02:48:37;;;;;;;0.20;0.20;;;12.20;99.90;;;;;;4987379;28;20041;-76
2023/08/27 02:51:03;;;;;;;0.40;0.40;;;12.20;99.90;;;;;;4982886;28;20038;-76
2023/08/27 02:53:29;;;;;;;0.30;0.30;;;12.20;99.90;;;;;;4987523;28;20053;-77
2023/08/27 02:55:55;;;;;;;0.32;0.32;;;12.20;99.90;;;;;;4982572;28;20085;-77
2023/08/27 02:58:21;;;;;;;0.45;0.45;;;12.20;99.90;;;;;;4983428;28;20530;-76
2023/08/27 03:00:47;;;;;;;0.30;0.30;;;12.20;99.90;;;;;;4979252;28;20043;-76
2023/08/27 03:03:13;;;;;;;0.30;0.30;;;12.10;99.90;;;;;;4984101;28;20057;-76
2023/08/27 03:05:40;;;;;;;0.40;0.40;;;12.10;99.90;;;;;;4993728;28;20058;-76
2023/08/27 03:08:05;;;;;;;0.40;0.40;;;12.10;99.90;;;;;;4980703;28;20054;-77
2023/08/27 03:10:31;;;;;;;0.40;0.40;;;12.10;99.90;;;;;;4987575;28;20057;-77
2023/08/27 03:12:57;;;;;;;0.40;0.40;;;12.10;99.90;;;;;;4983950;28;20053;-76
2023/08/27 03:15:22;;;;;;;0.38;0.38;;;12.10;99.90;;;;;;4988758;28;20569;-76
2023/08/27 03:17:48;;;;;;;0.40;0.40;;;12.10;99.90;;;;;;4984091;28;20051;-76
2023/08/27 03:20:14;;;;;;;0.32;0.32;;;12.00;99.90;;;;;;4980135;28;20046;-76
2023/08/27 03:22:40;;;;;;;0.40;0.40;;;12.00;99.90;;;;;;4980336;28;20050;-78
2023/08/27 03:25:06;;;;;;;0.30;0.30;;;12.00;99.90;;;;;;4978516;28;20068;-78
2023/08/27 03:27:35;;;;;;;0.32;0.32;;;12.00;99.90;;;;;;4974907;28;20058;-78
2023/08/27 03:30:02;;;;;;;0.40;0.40;;;12.00;99.90;;;;;;4984669;28;20491;-78
2023/08/27 03:32:28;;;;;;;0.22;0.22;;;12.00;99.90;;;;;;4978217;28;20073;-78
2023/08/27 03:34:54;;;;;;;0.40;0.40;;;12.00;99.90;;;;;;5003307;28;20096;-78
2023/08/27 03:37:19;;;;;;;0.43;0.43;;;12.00;99.90;;;;;;4982868;28;20045;-78
2023/08/27 03:39:45;;;;;;;0.25;0.25;;;12.00;99.90;;;;;;4986331;28;20151;-78
2023/08/27 03:42:10;;;;;;;0.40;0.40;;;12.00;99.90;;;;;;4990053;28;20414;-77
2023/08/27 03:44:36;;;;;;;0.30;0.30;;;12.00;99.90;;;;;;4984172;28;20562;-77
2023/08/27 03:47:04;;;;;;;0.30;0.30;;;12.00;99.90;;;;;;4994085;28;20581;-77
2023/08/27 03:49:30;;;;;;;0.30;0.30;;;12.00;99.90;;;;;;4990779;28;20486;-78
2023/08/27 03:51:56;;;;;;;0.40;0.40;;;12.10;99.90;;;;;;5002838;28;20042;-77
2023/08/27 03:54:21;;;;;;;0.50;0.50;;;12.10;99.90;;;;;;4983822;28;20061;-78
2023/08/27 03:56:48;;;;;;;0.50;0.50;;;12.10;99.90;;;;;;4984332;28;20104;-78
2023/08/27 03:59:14;;;;;;;0.32;0.32;;;12.10;99.90;;;;;;4991001;28;20057;-78
2023/08/27 04:01:49;;;;;;;0.40;0.40;;;12.10;99.90;;;;;;4989520;28;20046;-77
2023/08/27 04:04:15;;;;;;;0.30;0.30;;;12.20;99.90;;;;;;4974440;28;20121;-78
2023/08/27 04:06:41;;;;;;;0.60;0.60;;;12.20;99.90;;;;;;4986022;28;20133;-78
2023/08/27 04:09:06;;;;;;;0.43;0.43;;;12.20;99.90;;;;;;4988438;28;20048;-78
2023/08/27 04:11:32;;;;;;;0.50;0.50;;;12.10;99.90;;;;;;5005069;28;20061;-78
2023/08/27 04:13:58;;;;;;;0.45;0.45;;;12.10;99.90;;;;;;4987226;28;20046;-78
2023/08/27 04:16:23;;;;;;;0.30;0.30;;;12.00;99.90;;;;;;4993327;28;20049;-78
2023/08/27 04:18:51;;;;;;;0.20;0.20;;;12.00;99.90;;;;;;4984823;28;20052;-78
2023/08/27 04:21:17;;;;;;;0.30;0.30;;;12.00;99.90;;;;;;4990301;28;20605;-79
2023/08/27 04:23:42;;;;;;;0.30;0.30;;;12.00;99.90;;;;;;5000746;28;20058;-78
2023/08/27 04:26:08;;;;;;;0.50;0.50;;;12.00;99.90;;;;;;5007513;28;20124;-78
2023/08/27 04:28:34;;;;;;;0.35;0.35;;;12.00;99.90;;;;;;4993431;28;20042;-78
2023/08/27 04:31:00;;;;;;;0.30;0.30;;;12.00;99.90;;;;;;5004909;28;20042;-77
2023/08/27 04:33:28;;;;;;;0.20;0.20;;;12.00;99.90;;;;;;5002396;28;20038;-77
2023/08/27 04:35:56;;;;;;;0.30;0.30;;;12.00;99.90;;;;;;4975716;28;20077;-77
2023/08/27 04:38:21;;;;;;;0.30;0.30;;;12.10;99.90;;;;;;4987859;28;20970;-77
2023/08/27 04:40:53;;;;;;;0.35;0.35;;;12.10;99.90;;;;;;5004548;28;20050;-77
2023/08/27 04:43:19;;;;;;;0.35;0.35;;;12.10;99.90;;;;;;4986476;28;20057;-79
2023/08/27 04:45:45;;;;;;;0.38;0.38;;;12.10;99.90;;;;;;4984794;28;20042;-78
2023/08/27 04:48:11;;;;;;;0.38;0.38;;;12.20;99.90;;;;;;5007029;28;20065;-78
2023/08/27 04:50:38;;;;;;;0.40;0.40;;;12.20;99.90;;;;;;4988880;28;20628;-78
2023/08/27 04:53:03;;;;;;;0.30;0.30;;;12.20;99.90;;;;;;4985946;28;20046;-78
2023/08/27 04:55:30;;;;;;;0.40;0.40;;;12.30;99.90;;;;;;4991583;28;20046;-78
2023/08/27 04:57:55;;;;;;;0.30;0.30;;;12.30;99.90;;;;;;4991207;28;20124;-79
2023/08/27 05:00:21;;;;;;;0.43;0.43;;;12.30;99.90;;;;;;4990140;28;20086;-79
2023/08/27 05:02:48;;;;;;;0.50;0.50;;;12.40;99.90;;;;;;4990410;28;20487;-78
2023/08/27 05:05:14;;;;;;;0.52;0.52;;;12.40;99.90;;;;;;4986654;28;20062;-79
2023/08/27 05:07:39;;;;;;;0.60;0.60;;;12.50;99.90;;;;;;4991763;28;20147;-79
2023/08/27 05:10:05;;;;;;;0.30;0.30;;;12.50;99.90;;;;;;4997209;28;20092;-79
2023/08/27 05:12:31;;;;;;;0.30;0.30;;;12.50;99.90;;;;;;4987409;28;20153;-78
2023/08/27 05:14:57;;;;;;;0.40;0.40;;;12.60;99.90;;;;;;4995039;28;20458;-78
2023/08/27 05:17:22;;;;;;;0.20;0.20;;;12.60;99.90;;;;;;4990676;28;20073;-79
2023/08/27 05:19:48;;;;;;;0.22;0.22;;;12.60;99.90;;;;;;4979565;28;20061;-78
2023/08/27 05:22:14;;;;;;;0.43;0.43;;;12.60;99.90;;;;;;4970357;28;20039;-79
2023/08/27 05:24:41;;;;;;;0.40;0.40;;;12.60;99.90;;;;;;4987077;28;20054;-79
2023/08/27 05:27:06;;;;;;;0.30;0.30;;;12.60;99.90;;;;;;4985898;28;20092;-78
2023/08/27 05:29:32;;;;;;;0.73;0.73;;;12.60;99.90;;;;;;4979552;28;20817;-78
2023/08/27 05:31:58;;;;;;;0.30;0.30;;;12.70;99.90;;;;;;4978284;28;20046;-78
2023/08/27 05:34:23;;;;;;;0.30;0.30;;;12.70;99.90;;;;;;4987329;28;20451;-78
2023/08/27 05:36:49;;;;;;;0.35;0.35;;;12.80;99.90;;;;;;4989964;28;20125;-78
2023/08/27 05:39:15;;;;;;;0.30;0.30;;;12.80;99.90;;;;;;5008642;28;20045;-78
2023/08/27 05:41:41;;;;;;;0.40;0.40;;;12.90;99.90;;;;;;5002761;28;20108;-78
2023/08/27 05:44:06;;;;;;;0.47;0.40;;;13.00;99.90;;;;;;4987190;28;20042;-78
2023/08/27 05:46:32;;;;;;;0.63;0.63;;;13.00;99.90;;;;;;4984969;28;20122;-78
2023/08/27 05:49:00;;;;;;;0.30;0.30;;;13.10;99.90;;;;;;5000881;28;20428;-78
2023/08/27 05:51:26;;;;;;;0.40;0.40;;;13.20;99.90;;;;;;4996652;28;20619;-78
2023/08/27 05:53:53;;;;;;;0.30;0.30;;;13.30;99.90;;;;;;4979146;28;20061;-78
2023/08/27 05:56:19;;;;;;;0.52;0.52;;;13.40;99.90;;;;;;4989739;28;20408;-78
2023/08/27 05:58:45;;;;;;;0.30;0.30;;;13.50;99.90;;;;;;4985103;28;20054;-78
2023/08/27 06:01:11;;;;;;;0.40;0.40;;;13.50;99.90;;;;;;4989157;28;20486;-78
2023/08/27 06:03:36;;;;;;;0.35;0.35;;;13.60;99.90;;;;;;4982832;28;20049;-79
2023/08/27 06:06:03;;;;;;;0.52;0.52;;;13.70;99.90;;;;;;4988253;28;20136;-78
2023/08/27 06:08:29;;;;;;;0.60;0.60;;;13.70;99.90;;;;;;4990019;28;20049;-78
2023/08/27 06:10:55;;;;;;;0.40;0.40;;;13.80;99.90;;;;;;4994518;28;20120;-78
2023/08/27 06:13:20;;;;;;;0.63;0.63;;;13.80;99.90;;;;;;4988732;28;20157;-78
2023/08/27 06:15:47;;;;;;;0.50;0.50;;;13.90;99.90;;;;;;4983148;28;20046;-79
2023/08/27 06:18:13;;;;;;;0.55;0.55;;;14.00;99.90;;;;;;4990064;28;20046;-80
2023/08/27 06:20:39;;;;;;;0.60;0.60;;;13.90;99.90;;;;;;4989374;28;20852;-77
2023/08/27 06:23:05;;;;;;;0.57;0.57;;;14.00;99.90;;;;;;4981250;28;20377;-77
2023/08/27 06:25:34;;;;;;;0.40;0.40;;;14.00;99.90;;;;;;4985046;28;20683;-79
2023/08/27 06:28:03;;;;;;;0.65;0.65;;;14.00;99.90;;;;;;4984370;28;20445;-78
2023/08/27 06:30:30;;;;;;;0.40;0.40;;;14.00;99.90;;;;;;4984590;28;20057;-77
2023/08/27 06:32:55;;;;;;;0.60;0.60;;;14.10;99.90;;;;;;5000125;28;20057;-78
2023/08/27 06:35:22;;;;;;;0.35;0.35;;;14.10;99.90;;;;;;4985145;28;20046;-78
2023/08/27 06:37:48;;;;;;;0.38;0.38;;;14.10;99.90;;;;;;4986974;28;20057;-78
2023/08/27 06:40:14;;;;;;;0.43;0.43;;;14.10;99.90;;;;;;4989244;28;20518;-78
2023/08/27 06:42:45;;;;;;;0.65;0.65;;;14.00;99.90;;;;;;5007572;28;20042;-78
2023/08/27 06:45:11;;;;;;;1.52;0.93;;;14.00;99.90;;;;;;5004137;28;20434;-78
2023/08/27 06:47:37;;;;;;;0.60;0.60;;;14.10;99.90;;;;;;4970629;28;20046;-79
2023/08/27 06:50:06;;;;;;;0.45;0.45;;;14.00;99.90;;;;;;4985669;28;20232;-77
2023/08/27 06:52:32;;;;;;;0.50;0.50;;;14.00;99.90;;;;;;4988334;28;20087;-78
2023/08/27 06:54:58;;;;;;;0.32;0.32;;;14.00;99.90;;;;;;4979321;28;20454;-78
2023/08/27 06:57:24;;;;;;;0.50;0.50;;;14.00;99.90;;;;;;4990133;28;20057;-78
2023/08/27 06:59:50;;;;;;;0.75;0.75;;;14.00;99.90;;;;;;4984286;28;20518;-79
2023/08/27 07:02:16;;;;;;;0.50;0.50;;;14.00;99.90;;;;;;5007136;28;20117;-78
2023/08/27 07:04:42;;;;;;;0.60;0.60;;;14.00;99.90;;;;;;4985316;28;20301;-78
2023/08/27 07:07:09;;;;;;;0.40;0.40;;;14.00;99.90;;;;;;4978956;28;20074;-79
2023/08/27 07:09:35;;;;;;;0.40;0.40;;;13.90;99.90;;;;;;4987336;28;20419;-79
2023/08/27 07:12:01;;;;;;;0.50;0.50;;;13.90;99.90;;;;;;4990354;28;20049;-79
2023/08/27 07:14:26;;;;;;;0.40;0.40;;;13.90;99.90;;;;;;5004501;28;20042;-79
2023/08/27 07:16:52;;;;;;;0.50;0.50;;;13.90;99.90;;;;;;5005980;28;20459;-79
2023/08/27 07:19:18;;;;;;;0.50;0.50;;;13.90;99.90;;;;;;4991860;28;20073;-78
2023/08/27 07:21:43;;;;;;;0.60;0.60;;;14.00;99.90;;;;;;4970857;28;20137;-77
2023/08/27 07:24:09;;;;;;;0.40;0.40;;;14.00;99.90;;;;;;4990428;28;20069;-78
2023/08/27 07:26:34;;;;;;;0.60;0.60;;;14.00;99.90;;;;;;4981574;28;20048;-77
2023/08/27 07:29:00;;;;;;;0.40;0.40;;;14.00;99.90;;;;;;5002632;28;20088;-77
2023/08/27 07:31:26;;;;;;;0.38;0.38;;;14.00;99.90;;;;;;4980658;28;20553;-77
2023/08/27 07:33:52;;;;;;;0.40;0.40;;;14.00;99.90;;;;;;4996868;28;20099;-77
2023/08/27 07:36:18;;;;;;;0.30;0.30;;;14.00;99.90;;;;;;5000351;28;20049;-78
2023/08/27 07:38:43;;;;;;;0.45;0.45;;;14.10;99.90;;;;;;4989240;28;20053;-77
2023/08/27 07:41:10;;;;;;;0.28;0.28;;;14.10;99.90;;;;;;4981543;28;20125;-78
2023/08/27 07:43:36;;;;;;;0.30;0.30;;;14.10;99.90;;;;;;4984365;28;20054;-78
2023/08/27 07:46:02;;;;;;;0.30;0.30;;;14.20;99.90;;;;;;4983567;28;20084;-78
2023/08/27 07:48:28;;;;;;;0.40;0.40;;;14.20;99.90;;;;;;5009425;28;20722;-78
2023/08/27 07:50:54;;;;;;;0.32;0.32;;;14.30;99.90;;;;;;4986711;28;20396;-78
2023/08/27 07:53:19;;;;;;;0.30;0.30;;;14.40;99.90;;;;;;4990701;28;20111;-78
2023/08/27 07:55:45;;;;;;;0.32;0.32;;;14.40;99.90;;;;;;4986605;28;20503;-78
2023/08/27 07:58:11;;;;;;;0.50;0.50;;;14.60;99.90;;;;;;4968450;28;20065;-78
2023/08/27 08:00:36;;;;;;;0.40;0.40;;;14.80;99.90;;;;;;4965018;28;20054;-78
2023/08/27 08:03:02;;;;;;;0.40;0.40;;;15.00;99.90;;;;;;4963514;28;20042;-78
2023/08/27 08:05:28;;;;;;;0.30;0.30;;;15.20;99.90;;;;;;4970308;28;20086;-78
2023/08/27 08:07:54;;;;;;;0.68;0.68;;;15.50;99.90;;;;;;4981784;28;20470;-78
2023/08/27 08:10:20;;;;;;;0.40;0.40;;;15.70;99.90;;;;;;4964219;28;20496;-78
2023/08/27 08:12:46;;;;;;;0.70;0.70;;;16.00;99.90;;;;;;4970995;28;20050;-78
2023/08/27 08:15:14;;;;;;;0.40;0.40;;;16.10;99.90;;;;;;4970973;28;20101;-78
2023/08/27 08:17:39;;;;;;;0.32;0.32;;;16.20;99.90;;;;;;4971657;28;20066;-78
2023/08/27 08:20:06;;;;;;;0.30;0.30;;;16.40;99.90;;;;;;4970951;28;20043;-78
2023/08/27 08:22:31;;;;;;;0.30;0.30;;;16.60;99.90;;;;;;4986672;28;20133;-77
2023/08/27 08:24:57;;;;;;;0.40;0.40;;;16.90;99.90;;;;;;4972567;28;20134;-77
2023/08/27 08:27:24;;;;;;;0.32;0.32;;;17.10;99.90;;;;;;4990327;28;20112;-78
2023/08/27 08:29:50;;;;;;;0.35;0.35;;;17.20;99.90;;;;;;4971787;28;20153;-77
2023/08/27 08:32:15;;;;;;;0.30;0.30;;;17.50;99.90;;;;;;4971238;28;20563;-77
2023/08/27 08:34:41;;;;;;;0.40;0.40;;;17.60;99.90;;;;;;4961663;28;20125;-78
2023/08/27 08:37:07;;;;;;;0.30;0.30;;;17.70;99.90;;;;;;4967439;28;20073;-77
2023/08/27 08:39:33;;;;;;;0.80;0.75;;;17.90;99.90;;;;;;4968242;28;20053;-78
2023/08/27 08:42:38;;;;;;;0.40;0.40;;;18.20;99.90;;;;;;4966196;28;20164;-78
2023/08/27 08:45:13;;;;;;;0.68;0.68;;;18.40;99.90;;;;;;4969417;28;20094;-79
2023/08/27 08:47:39;;;;;;;0.20;0.20;;;18.50;99.90;;;;;;4978545;28;20049;-79
2023/08/27 08:50:08;;;;;;;0.73;0.73;;;18.60;99.90;;;;;;4960902;28;20055;-79
2023/08/27 08:52:40;;;;;;;0.30;0.30;;;18.70;99.90;;;;;;4965405;28;20527;-79
2023/08/27 08:55:10;;;;;;;0.40;0.40;;;18.90;99.90;;;;;;4962547;28;20105;-79
2023/08/27 08:57:40;;;;;;;0.40;0.40;;;19.00;99.90;;;;;;4987487;28;20065;-78
2023/08/27 09:00:08;;;;;;;0.30;0.30;;;19.10;99.90;;;;;;4992010;28;20061;-78
2023/08/27 09:02:35;;;;;;;0.38;0.38;;;19.30;99.90;;;;;;4989364;28;20049;-78
2023/08/27 09:05:02;;;;;;;0.20;0.20;;;19.40;99.90;;;;;;4991761;28;20042;-79
2023/08/27 09:07:29;;;;;;;0.40;0.40;;;19.70;99.90;;;;;;4989014;28;20119;-78
2023/08/27 09:09:57;;;;;;;0.50;0.50;;;19.80;99.90;;;;;;4989879;28;20046;-78
2023/08/27 09:12:25;;;;;;;0.40;0.40;;;20.00;99.90;;;;;;5006730;28;20442;-78
2023/08/27 09:14:51;;;;;;;1.15;1.05;;;20.00;99.90;;;;;;5006289;28;20050;-78
2023/08/27 09:17:19;;;;;;;0.40;0.40;;;20.10;99.90;;;;;;4991411;28;20483;-78
2023/08/27 09:19:46;;;;;;;0.45;0.45;;;20.20;99.90;;;;;;4984221;28;20076;-78
2023/08/27 09:22:13;;;;;;;0.20;0.20;;;20.30;99.90;;;;;;4981127;28;20057;-78
2023/08/27 09:24:40;;;;;;;0.40;0.40;;;20.40;99.90;;;;;;4984088;28;20050;-77
2023/08/27 09:27:05;;;;;;;0.50;0.50;;;20.40;99.90;;;;;;4989742;28;20049;-78
2023/08/27 09:29:33;;;;;;;0.30;0.30;;;20.40;99.90;;;;;;5004800;28;20058;-78
2023/08/27 09:31:58;;;;;;;0.40;0.40;;;20.60;99.90;;;;;;4984494;28;20208;-77
2023/08/27 09:34:25;;;;;;;0.40;0.40;;;20.60;99.90;;;;;;4990980;28;20124;-78
2023/08/27 09:36:51;;;;;;;0.50;0.50;;;20.60;99.90;;;;;;4990921;28;20758;-78
2023/08/27 09:39:18;;;;;;;0.30;0.30;;;20.60;99.90;;;;;;5009261;28;20049;-77
2023/08/27 09:41:46;;;;;;;0.40;0.40;;;20.70;99.90;;;;;;4988359;28;20062;-78
2023/08/27 09:44:13;;;;;;;0.70;0.70;;;20.80;99.90;;;;;;4977794;28;20053;-78
2023/08/27 09:46:40;;;;;;;0.43;0.43;;;20.90;99.90;;;;;;5004738;28;20048;-78
2023/08/27 09:49:07;;;;;;;0.30;0.30;;;21.00;99.90;;;;;;4989307;28;20324;-78
2023/08/27 09:51:38;;;;;;;0.30;0.30;;;21.10;99.90;;;;;;4990553;28;20399;-78
2023/08/27 09:54:19;;;;;;;0.30;0.30;;;21.20;99.90;;;;;;4987024;28;20050;-78
2023/08/27 09:56:49;;;;;;;0.50;0.50;;;21.30;99.90;;;;;;4977714;28;20051;-77
2023/08/27 09:59:18;;;;;;;0.30;0.30;;;21.50;99.90;;;;;;4985643;28;20066;-77
2023/08/27 10:01:51;;;;;;;0.30;0.30;;;21.60;99.90;;;;;;4967122;28;20042;-77
2023/08/27 10:04:18;;;;;;;0.28;0.28;;;21.80;99.90;;;;;;4969573;28;20137;-77
2023/08/27 10:06:44;;;;;;;0.60;0.60;;;21.80;99.90;;;;;;4983510;28;20081;-78
2023/08/27 10:09:09;;;;;;;0.30;0.30;;;21.80;99.90;;;;;;4970878;28;20062;-77
2023/08/27 10:11:40;;;;;;;0.20;0.20;;;21.60;99.90;;;;;;4966375;28;20097;-77
2023/08/27 10:14:06;;;;;;;0.40;0.40;;;21.40;99.90;;;;;;4986030;28;20050;-77
2023/08/27 10:16:34;;;;;;;0.30;0.30;;;21.20;99.90;;;;;;4967668;28;20078;-77
2023/08/27 10:19:01;;;;;;;0.50;0.50;;;21.10;99.90;;;;;;4981658;28;20111;-76
2023/08/27 10:21:27;;;;;;;0.57;0.57;;;21.00;99.90;;;;;;4966784;28;20046;-76
2023/08/27 10:23:54;;;;;;;0.60;0.60;;;21.10;99.90;;;;;;4987259;28;20164;-76
2023/08/27 10:26:22;;;;;;;0.47;0.40;;;21.10;99.90;;;;;;4965477;28;20059;-76
2023/08/27 10:28:48;;;;;;;0.38;0.38;;;21.00;99.90;;;;;;4969291;28;20058;-76
2023/08/27 10:31:14;;;;;;;0.40;0.40;;;20.90;99.90;;;;;;4985423;28;20043;-76
2023/08/27 10:33:39;;;;;;;0.40;0.40;;;20.90;99.90;;;;;;4991515;28;20613;-76
2023/08/27 10:36:15;;;;;;;0.30;0.30;;;20.80;99.90;;;;;;4962810;28;20053;-76
2023/08/27 10:38:45;;;;;;;0.90;0.50;;;20.70;99.90;;;;;;4988570;28;20738;-76
2023/08/27 10:41:16;;;;;;;0.30;0.30;;;20.60;99.90;;;;;;4968941;28;20051;-76
2023/08/27 10:43:41;;;;;;;0.50;0.50;;;20.60;99.90;;;;;;4963564;28;20569;-75
2023/08/27 10:46:18;;;;;;;0.30;0.30;;;20.70;99.90;;;;;;4967398;28;20137;-75
2023/08/27 10:48:54;;;;;;;0.33;0.33;;;20.80;99.90;;;;;;4959076;28;20162;-75
2023/08/27 10:51:26;;;;;;;0.40;0.40;;;21.10;99.90;;;;;;4962110;28;20042;-75
2023/08/27 10:53:52;;;;;;;0.60;0.60;;;21.30;99.90;;;;;;4977154;28;20054;-75
2023/08/27 10:56:36;;;;;;;0.38;0.38;;;21.50;99.90;;;;;;4960522;28;20046;-75
2023/08/27 10:59:09;;;;;;;0.32;0.32;;;21.60;99.90;;;;;;4989449;28;20042;-75
2023/08/27 11:01:37;;;;;;;0.40;0.40;;;21.60;99.90;;;;;;4983984;28;20092;-75
2023/08/27 11:04:08;;;;;;;0.57;0.57;;;21.60;99.90;;;;;;4979589;28;20050;-75
2023/08/27 11:06:40;;;;;;;0.60;0.60;;;21.50;99.90;;;;;;4989731;28;20053;-75
2023/08/27 11:09:14;;;;;;;0.40;0.40;;;21.50;99.90;;;;;;5010009;28;20550;-75
2023/08/27 11:11:48;;;;;;;0.30;0.30;;;21.40;99.90;;;;;;4995312;28;20050;-75
2023/08/27 11:14:14;;;;;;;0.60;0.60;;;21.30;99.90;;;;;;4979817;28;20050;-75
2023/08/27 11:16:58;;;;;;;0.50;0.50;;;21.10;99.90;;;;;;5001424;28;20570;-75
2023/08/27 11:19:35;;;;;;;0.68;0.68;;;21.00;99.90;;;;;;4988440;28;20387;-75
2023/08/27 11:22:13;;;;;;;0.47;0.47;;;21.00;99.90;;;;;;4991147;28;20128;-75
2023/08/27 11:24:52;;;;;;;0.40;0.40;;;20.90;99.90;;;;;;4988725;28;20054;-75
2023/08/27 11:27:22;;;;;;;0.50;0.50;;;20.70;99.90;;;;;;5000597;28;20097;-75
2023/08/27 11:29:51;;;;;;;0.40;0.40;;;20.60;99.90;;;;;;4997960;28;20506;-76
2023/08/27 11:32:19;;;;;;;0.43;0.43;;;20.50;99.90;;;;;;4987815;28;20064;-77
2023/08/27 11:34:45;;;;;;;;;;;20.30;99.90;;;;;;4988176;28;20050;-77
2023/08/27 11:37:11;;;;;;;0.40;0.40;;;20.10;99.90;;;;;;4985248;28;20337;-78
2023/08/27 11:39:39;;;;;;;0.30;0.30;;;19.80;99.90;;;;;;4987086;28;20062;-77
2023/08/27 11:42:13;;;;;;;0.45;0.45;;;19.60;99.90;;;;;;5004076;28;20046;-78
2023/08/27 11:44:49;;;;;;;0.20;0.20;;;19.50;99.90;;;;;;4985871;28;20089;-79
2023/08/27 11:47:15;;;;;;;0.30;0.30;;;19.50;99.90;;;;;;4987488;28;20049;-78
2023/08/27 11:49:42;;;;;;;0.22;0.22;;;19.40;99.90;;;;;;4989137;28;20104;-78
2023/08/27 11:52:11;;;;;;;0.38;0.38;;;19.40;99.90;;;;;;4990908;28;20128;-78
2023/08/27 11:54:38;;;;;;;0.40;0.40;;;19.30;99.90;;;;;;4992911;28;20061;-78
2023/08/27 11:57:06;;;;;;;0.22;0.22;;;19.30;99.90;;;;;;4990279;28;20481;-78
2023/08/27 11:59:32;;;;;;;0.38;0.38;;;19.40;99.90;;;;;;4992514;28;20430;-77
2023/08/27 12:01:59;;;;;;;0.28;0.28;;;19.30;99.90;;;;;;4979600;28;20096;-78
2023/08/27 12:04:28;;;;;;;0.20;0.20;;;19.30;99.90;;;;;;4986141;28;20127;-78
2023/08/27 12:07:02;;;;;;;0.20;0.20;;;19.30;99.90;;;;;;4992084;28;20037;-77
2023/08/27 12:09:30;;;;;;;0.30;0.30;;;19.30;99.90;;;;;;4992685;28;20124;-77
2023/08/27 12:12:03;;;;;;;;;;;19.30;99.90;;;;;;4990911;28;20046;-77
2023/08/27 12:14:29;;;;;;;0.45;0.45;;;19.20;99.90;;;;;;4987208;28;19968;-77
2023/08/27 12:17:07;;;;;;;0.30;0.30;;;19.00;99.90;;;;;;4983644;28;20167;-76
2023/08/27 12:19:33;;;;;;;;;;;18.70;99.90;;;;;;4992253;28;20057;-77
2023/08/27 12:21:59;;;;;;;0.40;0.40;;;18.20;99.90;;;;;;4992721;28;19925;-77
2023/08/27 12:24:33;;;;;;;0.70;0.70;;;17.70;99.90;;;;;;4992995;28;20137;-76
2023/08/27 12:27:07;;;;;;;0.60;0.60;;;17.00;99.90;;;;;;4992942;28;20060;-76
2023/08/27 12:29:40;;;;;;;0.32;0.32;;;16.60;99.90;;;;;;4992885;28;20057;-76
2023/08/27 12:32:14;;;;;;;0.45;0.45;;;16.30;99.90;;;;;;4991685;28;20057;-76
2023/08/27 12:34:48;;;;;;;0.30;0.30;;;16.10;99.90;;;;;;5005102;28;20803;-75
2023/08/27 12:37:17;;;;;;;0.40;0.40;;;15.90;99.90;;;;;;4986434;28;20398;-75
2023/08/27 12:39:44;;;;;;;0.20;0.20;;;15.90;99.90;;;;;;5007937;28;20053;-74
2023/08/27 12:42:12;;;;;;;0.40;0.40;;;15.90;99.90;;;;;;5009141;28;20042;-75
2023/08/27 12:44:38;;;;;;;0.30;0.30;;;16.00;99.90;;;;;;4997172;28;20050;-75
2023/08/27 12:47:06;;;;;;;0.32;0.32;;;16.00;99.90;;;;;;4998169;28;20132;-75
2023/08/27 12:49:32;;;;;;;0.40;0.40;;;16.10;99.90;;;;;;5011967;28;20050;-75